createdAt,value
2019-03-11T00:02:52.746Z,68.60
2019-03-11T00:07:58.696Z,68.91
2019-03-11T00:13:08.442Z,69.46
2019-03-11T00:18:17.931Z,68.46
2019-03-11T00:23:26.519Z,68.74
2019-03-11T00:28:32.448Z,68.07
2019-03-11T00:33:42.683Z,68.21
2019-03-11T00:38:48.661Z,68.18
2019-03-11T00:43:54.823Z,67.92
2019-03-11T00:49:01.307Z,67.44
2019-03-11T00:54:13.458Z,68.34
2019-03-11T00:59:20.797Z,68.45
2019-03-11T01:04:26.751Z,68.41
2019-03-11T01:09:32.742Z,68.95
2019-03-11T01:14:38.665Z,69.33
2019-03-11T01:19:45.877Z,70.24
2019-03-11T01:24:51.322Z,70.13
2019-03-11T01:29:57.193Z,70.67
2019-03-11T01:35:02.949Z,70.38
2019-03-11T01:40:11.470Z,69.68
2019-03-11T01:45:17.221Z,67.96
2019-03-11T01:50:22.717Z,67.73
2019-03-11T01:55:31.285Z,66.71
2019-03-11T02:00:59.062Z,66.43
2019-03-11T02:06:19.887Z,66.18
2019-03-11T02:11:22.795Z,66.23
2019-03-11T02:16:36.807Z,67.09
2019-03-11T02:21:43.933Z,66.96
2019-03-11T02:26:49.496Z,67.03
2019-03-11T02:31:55.040Z,67.29
2019-03-11T02:37:00.520Z,67.27
2019-03-11T02:42:20.085Z,67.21
2019-03-11T02:47:28.859Z,65.67
2019-03-11T02:52:35.405Z,64.92
2019-03-11T02:57:41.197Z,64.54
2019-03-11T03:03:10.957Z,63.91
2019-03-11T03:08:43.379Z,62.82
2019-03-11T03:13:48.916Z,62.63
2019-03-11T03:18:54.721Z,61.58
2019-03-11T03:24:00.293Z,60.91
2019-03-11T03:29:08.823Z,60.87
2019-03-11T03:34:14.401Z,60.47
2019-03-11T03:39:22.230Z,60.25
2019-03-11T03:44:28.420Z,60.00
2019-03-11T03:49:33.953Z,60.21
2019-03-11T03:54:39.721Z,59.93
2019-03-11T03:59:45.759Z,59.96
2019-03-11T04:04:51.287Z,59.96
2019-03-11T04:09:58.226Z,60.02
2019-03-11T04:15:04.257Z,60.25
2019-03-11T04:20:13.635Z,60.02
2019-03-11T04:25:22.097Z,59.85
2019-03-11T04:30:36.137Z,59.58
2019-03-11T04:35:42.344Z,59.93
2019-03-11T04:40:52.241Z,59.58
2019-03-11T04:45:57.977Z,59.78
2019-03-11T04:51:06.299Z,59.79
2019-03-11T04:56:12.121Z,59.90
2019-03-11T05:01:19.021Z,59.95
2019-03-11T05:06:25.728Z,59.78
2019-03-11T05:11:37.651Z,59.90
2019-03-11T05:16:47.397Z,59.95
2019-03-11T05:21:53.386Z,59.47
2019-03-11T05:26:59.175Z,59.17
2019-03-11T05:32:08.987Z,59.62
2019-03-11T05:37:15.810Z,59.98
2019-03-11T05:42:24.733Z,60.51
2019-03-11T05:47:31.345Z,59.14
2019-03-11T05:52:37.223Z,59.19
2019-03-11T05:57:43.118Z,59.36
2019-03-11T06:02:48.602Z,59.64
2019-03-11T06:07:57.775Z,58.74
2019-03-11T06:13:14.977Z,59.23
2019-03-11T06:18:46.423Z,58.79
2019-03-11T06:23:52.025Z,57.99
2019-03-11T06:28:57.572Z,58.81
2019-03-11T06:34:07.060Z,58.11
2019-03-11T06:39:12.937Z,58.44
2019-03-11T06:44:20.339Z,58.60
2019-03-11T06:49:39.601Z,58.18
2019-03-11T06:54:46.451Z,58.89
2019-03-11T06:59:52.001Z,58.32
2019-03-11T07:04:57.893Z,58.65
2019-03-11T07:10:06.566Z,58.70
2019-03-11T07:15:12.159Z,58.70
2019-03-11T07:20:20.138Z,58.60
2019-03-11T07:25:27.790Z,60.73
2019-03-11T07:30:38.815Z,60.86
2019-03-11T07:35:47.791Z,61.52
2019-03-11T07:40:53.379Z,61.14
2019-03-11T07:46:03.816Z,62.11
2019-03-11T07:51:09.564Z,63.75
2019-03-11T07:56:15.092Z,64.09
2019-03-11T08:01:20.545Z,64.01
2019-03-11T08:06:26.369Z,63.44
2019-03-11T08:11:33.062Z,63.79
2019-03-11T08:16:38.920Z,63.10
2019-03-11T08:21:45.375Z,62.50
2019-03-11T08:26:50.883Z,61.78
2019-03-11T08:31:56.431Z,62.23
2019-03-11T08:37:04.251Z,62.49
2019-03-11T08:42:12.177Z,61.72
2019-03-11T08:47:18.426Z,62.95
2019-03-11T08:52:26.555Z,62.96
2019-03-11T08:57:32.678Z,64.45
2019-03-11T09:02:40.105Z,64.79
2019-03-11T09:07:45.727Z,62.69
2019-03-11T09:13:06.324Z,61.18
2019-03-11T09:18:11.949Z,59.34
2019-03-11T09:23:17.775Z,58.56
2019-03-11T09:28:25.913Z,55.89
2019-03-11T09:33:36.479Z,55.29
2019-03-11T09:38:42.063Z,55.15
2019-03-11T09:43:47.570Z,53.74
2019-03-11T09:48:55.687Z,52.73
2019-03-11T09:54:03.255Z,51.07
2019-03-11T09:59:15.758Z,50.79
2019-03-11T10:04:22.007Z,50.24
2019-03-11T10:09:27.701Z,48.73
2019-03-11T10:14:33.628Z,48.73
2019-03-11T10:19:40.806Z,49.59
2019-03-11T10:24:46.422Z,48.75
2019-03-11T10:29:54.196Z,46.97
2019-03-11T10:35:30.134Z,47.03
2019-03-11T10:40:25.223Z,46.93
2019-03-11T10:45:43.141Z,46.41
2019-03-11T10:50:49.017Z,46.07
2019-03-11T10:56:00.130Z,46.41
2019-03-11T11:01:09.769Z,45.77
2019-03-11T11:06:24.080Z,45.47
2019-03-11T11:11:29.687Z,46.22
2019-03-11T11:16:35.265Z,45.74
2019-03-11T11:21:41.278Z,44.49
2019-03-11T11:26:46.788Z,44.90
2019-03-11T11:31:52.284Z,47.18
2019-03-11T11:36:57.808Z,44.95
2019-03-11T11:42:05.970Z,47.12
2019-03-11T11:47:14.637Z,46.41
2019-03-11T11:52:20.546Z,46.84
2019-03-11T11:57:26.533Z,47.42
2019-03-11T12:02:32.306Z,45.89
2019-03-11T12:07:37.849Z,44.16
2019-03-11T12:12:44.380Z,43.06
2019-03-11T12:17:50.933Z,43.14
2019-03-11T12:23:05.308Z,44.11
2019-03-11T12:28:16.704Z,43.72
2019-03-11T12:33:22.529Z,44.48
2019-03-11T12:38:28.901Z,51.04
2019-03-11T12:43:34.753Z,52.44
2019-03-11T12:48:40.288Z,48.99
2019-03-11T12:53:45.794Z,45.65
2019-03-11T12:58:51.551Z,45.19
2019-03-11T13:03:57.319Z,43.54
2019-03-11T13:09:05.029Z,43.78
2019-03-11T13:14:25.932Z,44.70
2019-03-11T13:19:31.880Z,46.00
2019-03-11T13:24:46.231Z,46.00
2019-03-11T13:29:53.289Z,46.27
2019-03-11T13:35:01.044Z,45.92
2019-03-11T13:40:11.500Z,50.90
2019-03-11T13:45:18.129Z,52.05
2019-03-11T13:50:23.800Z,54.94
2019-03-11T13:55:30.457Z,60.55
2019-03-11T14:00:35.999Z,60.48
2019-03-11T14:05:45.328Z,59.01
2019-03-11T14:10:52.401Z,58.39
2019-03-11T14:15:58.176Z,57.24
2019-03-11T14:21:04.357Z,56.73
2019-03-11T14:26:16.280Z,55.38
2019-03-11T14:31:21.880Z,53.99
2019-03-11T14:36:29.096Z,51.89
2019-03-11T14:41:36.097Z,64.04
2019-03-11T14:46:44.156Z,64.04
2019-03-11T14:51:59.599Z,64.38
2019-03-11T14:57:06.206Z,62.96
2019-03-11T15:02:12.321Z,62.60
2019-03-11T15:07:19.394Z,63.24
2019-03-11T15:12:24.922Z,61.70
2019-03-11T15:17:31.120Z,60.52
2019-03-11T15:22:36.794Z,60.52
2019-03-11T15:27:43.000Z,60.86
2019-03-11T15:32:52.406Z,59.41
2019-03-11T15:37:59.626Z,58.39
2019-03-11T15:43:10.454Z,59.66
2019-03-11T15:48:18.590Z,58.69
2019-03-11T15:53:24.637Z,58.84
2019-03-11T15:58:30.478Z,57.38
2019-03-11T16:03:36.719Z,58.29
2019-03-11T16:08:45.117Z,58.29
2019-03-11T16:13:51.100Z,58.54
2019-03-11T16:18:59.565Z,58.56
2019-03-11T16:24:07.170Z,56.85
2019-03-11T16:29:13.192Z,56.85
2019-03-11T16:34:19.263Z,58.13
2019-03-11T16:39:30.577Z,57.64
2019-03-11T16:44:36.539Z,57.64
2019-03-11T16:49:42.429Z,58.11
2019-03-11T16:54:51.415Z,57.04
2019-03-11T16:59:57.039Z,57.55
2019-03-11T17:05:02.829Z,57.58
2019-03-11T17:10:10.181Z,57.71
2019-03-11T17:15:43.242Z,57.39
2019-03-11T17:20:51.392Z,56.96
2019-03-11T17:25:58.045Z,57.87
2019-03-11T17:31:11.149Z,57.56
2019-03-11T17:36:21.191Z,58.37
2019-03-11T17:41:29.520Z,58.37
2019-03-11T17:46:37.896Z,59.14
2019-03-11T17:51:46.927Z,59.93
2019-03-11T17:56:53.613Z,60.66
2019-03-11T18:02:02.467Z,61.74
2019-03-11T18:07:09.093Z,62.16
2019-03-11T18:12:26.489Z,62.33
2019-03-11T18:17:33.393Z,62.77
2019-03-11T18:22:41.625Z,63.50
2019-03-11T18:27:47.832Z,65.38
2019-03-11T18:32:55.398Z,68.30
2019-03-11T18:38:04.410Z,69.47
2019-03-11T18:43:20.713Z,70.49
2019-03-11T18:48:26.209Z,69.16
2019-03-11T18:53:41.508Z,70.40
2019-03-11T18:58:53.916Z,68.42
2019-03-11T19:04:00.895Z,69.99
2019-03-11T19:09:09.872Z,70.23
2019-03-11T19:14:17.490Z,69.53
2019-03-11T19:19:25.196Z,69.96
2019-03-11T19:24:33.341Z,69.25
2019-03-11T19:29:40.962Z,68.83
2019-03-11T19:34:46.870Z,70.36
2019-03-11T19:39:54.708Z,69.39
2019-03-11T19:45:01.203Z,69.82
2019-03-11T19:50:12.305Z,69.89
2019-03-11T19:55:22.004Z,70.23
2019-03-11T20:00:29.619Z,70.12
2019-03-11T20:05:42.900Z,70.90
2019-03-11T20:10:50.602Z,70.37
2019-03-11T20:15:57.591Z,70.50
2019-03-11T20:21:03.976Z,70.06
2019-03-11T20:26:12.525Z,70.30
2019-03-11T20:31:22.108Z,71.12
2019-03-11T20:36:30.369Z,70.35
2019-03-11T20:41:42.384Z,70.18
2019-03-11T20:46:54.377Z,70.24
2019-03-11T20:52:04.247Z,70.31
2019-03-11T20:57:10.492Z,70.22
2019-03-11T21:02:16.404Z,70.99
2019-03-11T21:07:22.310Z,70.11
2019-03-11T21:12:31.084Z,70.87
2019-03-11T21:17:42.093Z,70.46
2019-03-11T21:22:54.007Z,70.21
2019-03-11T21:28:07.597Z,69.76
2019-03-11T21:33:09.874Z,69.81
2019-03-11T21:38:23.192Z,69.22
2019-03-11T21:43:30.448Z,69.51
2019-03-11T21:48:43.273Z,71.32
2019-03-11T21:54:02.484Z,70.56
2019-03-11T21:59:10.533Z,70.19
2019-03-11T22:04:16.339Z,69.68
2019-03-11T22:09:21.940Z,70.06
2019-03-11T22:14:28.212Z,70.21
2019-03-11T22:19:37.072Z,70.02
2019-03-11T22:24:44.619Z,69.68
2019-03-11T22:29:51.171Z,69.66
2019-03-11T22:34:57.263Z,69.57
2019-03-11T22:40:06.446Z,70.03
2019-03-11T22:45:16.668Z,70.21
2019-03-11T22:50:25.481Z,71.22
2019-03-11T22:55:31.481Z,72.03
2019-03-11T23:00:54.266Z,72.77
2019-03-11T23:06:04.438Z,71.91
2019-03-11T23:11:16.597Z,72.12
2019-03-11T23:16:24.147Z,73.65
2019-03-11T23:21:41.092Z,73.39
2019-03-11T23:26:48.046Z,72.71
2019-03-11T23:32:01.033Z,73.02
2019-03-11T23:37:08.645Z,72.69
2019-03-11T23:42:14.504Z,71.53
2019-03-11T23:53:22.418Z,73.82
2019-03-11T23:58:31.052Z,72.39
